sensor_id;sensor_type;location;lat;lon;timestamp;P1;durP1;ratioP1;P2;durP2;ratioP2
77466;SDS011;66564;42.482;25.548;2023-02-18T00:03:16;6.28;;;4.40;;
77466;SDS011;66564;42.482;25.548;2023-02-18T00:06:42;5.68;;;3.92;;
77466;SDS011;66564;42.482;25.548;2023-02-18T00:10:09;7.13;;;3.95;;
77466;SDS011;66564;42.482;25.548;2023-02-18T00:13:32;9.23;;;4.43;;
77466;SDS011;66564;42.482;25.548;2023-02-18T00:16:57;8.65;;;4.43;;
77466;SDS011;66564;42.482;25.548;2023-02-18T00:20:23;7.25;;;4.13;;
77466;SDS011;66564;42.482;25.548;2023-02-18T00:23:48;7.53;;;4.55;;
77466;SDS011;66564;42.482;25.548;2023-02-18T00:27:13;8.18;;;4.57;;
77466;SDS011;66564;42.482;25.548;2023-02-18T00:30:39;7.28;;;4.40;;
77466;SDS011;66564;42.482;25.548;2023-02-18T00:34:04;7.78;;;4.32;;
77466;SDS011;66564;42.482;25.548;2023-02-18T00:37:30;8.80;;;4.85;;
77466;SDS011;66564;42.482;25.548;2023-02-18T00:40:55;7.32;;;4.20;;
77466;SDS011;66564;42.482;25.548;2023-02-18T00:44:21;9.30;;;4.85;;
77466;SDS011;66564;42.482;25.548;2023-02-18T00:47:46;7.55;;;4.22;;
77466;SDS011;66564;42.482;25.548;2023-02-18T00:51:11;7.30;;;4.43;;
77466;SDS011;66564;42.482;25.548;2023-02-18T00:54:36;9.50;;;4.50;;
77466;SDS011;66564;42.482;25.548;2023-02-18T00:58:02;9.75;;;4.78;;
77466;SDS011;66564;42.482;25.548;2023-02-18T01:01:27;7.25;;;4.30;;
77466;SDS011;66564;42.482;25.548;2023-02-18T01:03:52;5.97;;;3.75;;
77466;SDS011;66564;42.482;25.548;2023-02-18T01:07:18;6.28;;;4.00;;
77466;SDS011;66564;42.482;25.548;2023-02-18T01:10:44;6.18;;;3.42;;
77466;SDS011;66564;42.482;25.548;2023-02-18T01:14:08;6.90;;;4.03;;
77466;SDS011;66564;42.482;25.548;2023-02-18T01:17:33;6.70;;;4.50;;
77466;SDS011;66564;42.482;25.548;2023-02-18T01:20:58;7.20;;;3.75;;
77466;SDS011;66564;42.482;25.548;2023-02-18T01:24:24;7.55;;;4.43;;
77466;SDS011;66564;42.482;25.548;2023-02-18T01:27:49;8.32;;;4.63;;
77466;SDS011;66564;42.482;25.548;2023-02-18T01:31:14;6.78;;;4.10;;
77466;SDS011;66564;42.482;25.548;2023-02-18T01:34:39;6.95;;;4.07;;
77466;SDS011;66564;42.482;25.548;2023-02-18T01:38:05;7.22;;;4.10;;
77466;SDS011;66564;42.482;25.548;2023-02-18T01:41:30;6.25;;;3.95;;
77466;SDS011;66564;42.482;25.548;2023-02-18T01:48:37;6.65;;;4.20;;
77466;SDS011;66564;42.482;25.548;2023-02-18T01:51:49;7.53;;;3.72;;
77466;SDS011;66564;42.482;25.548;2023-02-18T01:55:11;8.60;;;3.58;;
77466;SDS011;66564;42.482;25.548;2023-02-18T01:58:37;7.03;;;3.47;;
77466;SDS011;66564;42.482;25.548;2023-02-18T02:02:02;6.47;;;4.00;;
77466;SDS011;66564;42.482;25.548;2023-02-18T02:05:31;4.88;;;3.67;;
77466;SDS011;66564;42.482;25.548;2023-02-18T02:08:56;7.00;;;3.90;;
77466;SDS011;66564;42.482;25.548;2023-02-18T02:18:37;7.85;;;4.10;;
77466;SDS011;66564;42.482;25.548;2023-02-18T02:24:53;9.00;;;4.70;;
77466;SDS011;66564;42.482;25.548;2023-02-18T02:37:59;7.68;;;4.53;;
77466;SDS011;66564;42.482;25.548;2023-02-18T02:44:28;10.77;;;4.93;;
77466;SDS011;66564;42.482;25.548;2023-02-18T02:48:00;6.78;;;4.53;;
77466;SDS011;66564;42.482;25.548;2023-02-18T02:51:10;6.82;;;4.28;;
77466;SDS011;66564;42.482;25.548;2023-02-18T02:54:36;8.88;;;4.78;;
77466;SDS011;66564;42.482;25.548;2023-02-18T02:58:01;8.23;;;5.03;;
77466;SDS011;66564;42.482;25.548;2023-02-18T03:01:35;7.15;;;3.95;;
77466;SDS011;66564;42.482;25.548;2023-02-18T03:05:03;7.40;;;4.38;;
77466;SDS011;66564;42.482;25.548;2023-02-18T03:12:24;7.57;;;4.40;;
77466;SDS011;66564;42.482;25.548;2023-02-18T03:19:08;8.38;;;4.60;;
77466;SDS011;66564;42.482;25.548;2023-02-18T03:22:38;7.80;;;4.45;;
77466;SDS011;66564;42.482;25.548;2023-02-18T03:25:08;8.23;;;3.95;;
77466;SDS011;66564;42.482;25.548;2023-02-18T03:28:33;7.57;;;4.35;;
77466;SDS011;66564;42.482;25.548;2023-02-18T03:31:59;9.23;;;4.10;;
77466;SDS011;66564;42.482;25.548;2023-02-18T03:35:23;9.45;;;4.63;;
77466;SDS011;66564;42.482;25.548;2023-02-18T03:38:55;7.55;;;4.35;;
77466;SDS011;66564;42.482;25.548;2023-02-18T03:42:24;6.97;;;4.50;;
77466;SDS011;66564;42.482;25.548;2023-02-18T03:45:45;6.82;;;4.30;;
77466;SDS011;66564;42.482;25.548;2023-02-18T03:49:11;6.97;;;4.53;;
77466;SDS011;66564;42.482;25.548;2023-02-18T03:52:35;9.75;;;4.57;;
77466;SDS011;66564;42.482;25.548;2023-02-18T03:56:01;7.75;;;5.18;;
77466;SDS011;66564;42.482;25.548;2023-02-18T03:59:26;9.38;;;4.55;;
77466;SDS011;66564;42.482;25.548;2023-02-18T04:02:51;7.25;;;4.43;;
77466;SDS011;66564;42.482;25.548;2023-02-18T04:06:16;7.70;;;4.82;;
77466;SDS011;66564;42.482;25.548;2023-02-18T04:09:42;8.70;;;4.57;;
77466;SDS011;66564;42.482;25.548;2023-02-18T04:13:07;8.27;;;4.32;;
77466;SDS011;66564;42.482;25.548;2023-02-18T04:16:32;7.18;;;4.18;;
77466;SDS011;66564;42.482;25.548;2023-02-18T04:19:58;7.97;;;4.93;;
77466;SDS011;66564;42.482;25.548;2023-02-18T04:23:24;8.85;;;3.72;;
77466;SDS011;66564;42.482;25.548;2023-02-18T04:26:49;7.80;;;4.82;;
77466;SDS011;66564;42.482;25.548;2023-02-18T04:30:15;6.95;;;4.40;;
77466;SDS011;66564;42.482;25.548;2023-02-18T04:33:40;6.80;;;4.30;;
77466;SDS011;66564;42.482;25.548;2023-02-18T04:36:05;7.95;;;4.75;;
77466;SDS011;66564;42.482;25.548;2023-02-18T04:39:31;8.13;;;4.47;;
77466;SDS011;66564;42.482;25.548;2023-02-18T04:42:56;10.73;;;5.15;;
77466;SDS011;66564;42.482;25.548;2023-02-18T04:46:21;6.10;;;4.35;;
77466;SDS011;66564;42.482;25.548;2023-02-18T04:49:46;7.63;;;4.57;;
77466;SDS011;66564;42.482;25.548;2023-02-18T04:53:12;7.65;;;4.30;;
77466;SDS011;66564;42.482;25.548;2023-02-18T04:56:37;7.03;;;4.28;;
77466;SDS011;66564;42.482;25.548;2023-02-18T05:00:04;5.97;;;4.07;;
77466;SDS011;66564;42.482;25.548;2023-02-18T05:03:28;5.35;;;3.63;;
77466;SDS011;66564;42.482;25.548;2023-02-18T05:06:53;8.20;;;3.88;;
77466;SDS011;66564;42.482;25.548;2023-02-18T05:10:18;7.85;;;3.97;;
77466;SDS011;66564;42.482;25.548;2023-02-18T05:13:43;7.53;;;4.28;;
77466;SDS011;66564;42.482;25.548;2023-02-18T05:17:08;10.02;;;4.57;;
77466;SDS011;66564;42.482;25.548;2023-02-18T05:20:34;6.82;;;3.67;;
77466;SDS011;66564;42.482;25.548;2023-02-18T05:23:59;8.23;;;3.50;;
77466;SDS011;66564;42.482;25.548;2023-02-18T05:27:20;5.28;;;3.33;;
77466;SDS011;66564;42.482;25.548;2023-02-18T05:29:46;5.95;;;3.50;;
77466;SDS011;66564;42.482;25.548;2023-02-18T05:32:11;7.50;;;3.55;;
77466;SDS011;66564;42.482;25.548;2023-02-18T05:34:37;8.70;;;4.25;;
77466;SDS011;66564;42.482;25.548;2023-02-18T05:37:02;6.85;;;3.70;;
77466;SDS011;66564;42.482;25.548;2023-02-18T05:39:28;11.23;;;3.60;;
77466;SDS011;66564;42.482;25.548;2023-02-18T05:41:53;6.68;;;3.63;;
77466;SDS011;66564;42.482;25.548;2023-02-18T05:44:19;6.32;;;3.65;;
77466;SDS011;66564;42.482;25.548;2023-02-18T05:47:01;8.20;;;3.97;;
77466;SDS011;66564;42.482;25.548;2023-02-18T05:49:29;11.70;;;3.83;;
77466;SDS011;66564;42.482;25.548;2023-02-18T05:51:56;7.50;;;3.40;;
77466;SDS011;66564;42.482;25.548;2023-02-18T05:54:22;10.90;;;3.78;;
77466;SDS011;66564;42.482;25.548;2023-02-18T05:56:48;7.00;;;4.07;;
77466;SDS011;66564;42.482;25.548;2023-02-18T06:00:13;7.07;;;3.67;;
77466;SDS011;66564;42.482;25.548;2023-02-18T06:03:38;6.60;;;3.55;;
77466;SDS011;66564;42.482;25.548;2023-02-18T06:07:03;5.70;;;3.47;;
77466;SDS011;66564;42.482;25.548;2023-02-18T06:10:29;7.75;;;3.13;;
77466;SDS011;66564;42.482;25.548;2023-02-18T06:13:54;4.68;;;3.00;;
77466;SDS011;66564;42.482;25.548;2023-02-18T06:17:19;5.93;;;3.50;;
77466;SDS011;66564;42.482;25.548;2023-02-18T06:20:45;6.32;;;3.63;;
77466;SDS011;66564;42.482;25.548;2023-02-18T06:24:10;8.85;;;4.20;;
77466;SDS011;66564;42.482;25.548;2023-02-18T06:27:35;9.65;;;4.20;;
77466;SDS011;66564;42.482;25.548;2023-02-18T06:31:00;7.55;;;4.07;;
77466;SDS011;66564;42.482;25.548;2023-02-18T06:34:25;9.65;;;4.18;;
77466;SDS011;66564;42.482;25.548;2023-02-18T06:37:52;5.93;;;3.97;;
77466;SDS011;66564;42.482;25.548;2023-02-18T06:41:17;7.50;;;3.90;;
77466;SDS011;66564;42.482;25.548;2023-02-18T06:44:43;8.38;;;4.03;;
77466;SDS011;66564;42.482;25.548;2023-02-18T06:48:08;7.15;;;4.28;;
77466;SDS011;66564;42.482;25.548;2023-02-18T06:51:33;7.40;;;4.25;;
77466;SDS011;66564;42.482;25.548;2023-02-18T06:54:59;7.72;;;4.18;;
77466;SDS011;66564;42.482;25.548;2023-02-18T06:58:23;8.50;;;3.80;;
77466;SDS011;66564;42.482;25.548;2023-02-18T07:01:49;7.57;;;4.55;;
77466;SDS011;66564;42.482;25.548;2023-02-18T07:05:14;9.90;;;3.80;;
77466;SDS011;66564;42.482;25.548;2023-02-18T07:08:39;6.25;;;3.15;;
77466;SDS011;66564;42.482;25.548;2023-02-18T07:12:04;5.60;;;3.25;;
77466;SDS011;66564;42.482;25.548;2023-02-18T07:15:30;7.28;;;3.40;;
77466;SDS011;66564;42.482;25.548;2023-02-18T07:18:55;8.43;;;3.80;;
77466;SDS011;66564;42.482;25.548;2023-02-18T07:22:20;8.57;;;4.13;;
77466;SDS011;66564;42.482;25.548;2023-02-18T07:25:45;7.13;;;3.90;;
77466;SDS011;66564;42.482;25.548;2023-02-18T07:29:11;8.70;;;4.60;;
77466;SDS011;66564;42.482;25.548;2023-02-18T07:31:36;12.43;;;5.03;;
77466;SDS011;66564;42.482;25.548;2023-02-18T07:35:02;15.18;;;5.20;;
77466;SDS011;66564;42.482;25.548;2023-02-18T07:38:27;10.75;;;4.43;;
77466;SDS011;66564;42.482;25.548;2023-02-18T07:41:52;8.05;;;4.43;;
77466;SDS011;66564;42.482;25.548;2023-02-18T07:45:17;10.18;;;5.38;;
77466;SDS011;66564;42.482;25.548;2023-02-18T07:48:42;8.88;;;3.92;;
77466;SDS011;66564;42.482;25.548;2023-02-18T07:52:08;6.93;;;3.40;;
77466;SDS011;66564;42.482;25.548;2023-02-18T07:55:33;6.88;;;4.10;;
77466;SDS011;66564;42.482;25.548;2023-02-18T07:58:58;8.48;;;4.97;;
77466;SDS011;66564;42.482;25.548;2023-02-18T08:02:23;13.32;;;5.82;;
77466;SDS011;66564;42.482;25.548;2023-02-18T08:05:49;7.45;;;5.10;;
77466;SDS011;66564;42.482;25.548;2023-02-18T08:09:14;6.68;;;3.60;;
77466;SDS011;66564;42.482;25.548;2023-02-18T08:12:39;9.02;;;4.13;;
77466;SDS011;66564;42.482;25.548;2023-02-18T08:16:08;5.82;;;3.65;;
77466;SDS011;66564;42.482;25.548;2023-02-18T08:18:33;8.80;;;3.95;;
77466;SDS011;66564;42.482;25.548;2023-02-18T08:20:59;7.78;;;3.60;;
77466;SDS011;66564;42.482;25.548;2023-02-18T08:23:24;8.65;;;3.92;;
77466;SDS011;66564;42.482;25.548;2023-02-18T08:25:51;6.65;;;3.88;;
77466;SDS011;66564;42.482;25.548;2023-02-18T08:28:18;10.95;;;4.25;;
77466;SDS011;66564;42.482;25.548;2023-02-18T08:30:45;6.45;;;4.03;;
77466;SDS011;66564;42.482;25.548;2023-02-18T08:33:11;5.18;;;3.72;;
77466;SDS011;66564;42.482;25.548;2023-02-18T08:35:39;7.75;;;4.40;;
77466;SDS011;66564;42.482;25.548;2023-02-18T08:38:05;9.05;;;4.65;;
77466;SDS011;66564;42.482;25.548;2023-02-18T08:40:30;9.80;;;5.00;;
77466;SDS011;66564;42.482;25.548;2023-02-18T08:42:56;8.70;;;4.70;;
77466;SDS011;66564;42.482;25.548;2023-02-18T08:45:21;13.02;;;5.05;;
77466;SDS011;66564;42.482;25.548;2023-02-18T08:47:47;10.43;;;4.85;;
77466;SDS011;66564;42.482;25.548;2023-02-18T08:50:13;7.93;;;5.32;;
77466;SDS011;66564;42.482;25.548;2023-02-18T08:52:39;7.90;;;5.18;;
77466;SDS011;66564;42.482;25.548;2023-02-18T08:55:05;8.98;;;4.55;;
77466;SDS011;66564;42.482;25.548;2023-02-18T08:57:30;9.57;;;5.20;;
77466;SDS011;66564;42.482;25.548;2023-02-18T08:59:56;7.10;;;4.70;;
77466;SDS011;66564;42.482;25.548;2023-02-18T09:02:25;7.45;;;5.00;;
77466;SDS011;66564;42.482;25.548;2023-02-18T09:04:50;7.88;;;5.30;;
77466;SDS011;66564;42.482;25.548;2023-02-18T09:08:15;9.00;;;5.00;;
77466;SDS011;66564;42.482;25.548;2023-02-18T09:11:41;8.23;;;5.20;;
77466;SDS011;66564;42.482;25.548;2023-02-18T09:15:06;9.18;;;4.70;;
77466;SDS011;66564;42.482;25.548;2023-02-18T09:17:32;9.60;;;5.90;;
77466;SDS011;66564;42.482;25.548;2023-02-18T09:20:58;10.95;;;5.25;;
77466;SDS011;66564;42.482;25.548;2023-02-18T09:24:22;10.30;;;5.70;;
77466;SDS011;66564;42.482;25.548;2023-02-18T09:27:47;12.15;;;5.03;;
77466;SDS011;66564;42.482;25.548;2023-02-18T09:31:13;8.98;;;5.15;;
77466;SDS011;66564;42.482;25.548;2023-02-18T09:34:38;5.00;;;2.80;;
77466;SDS011;66564;42.482;25.548;2023-02-18T09:37:14;5.25;;;2.83;;
77466;SDS011;66564;42.482;25.548;2023-02-18T09:39:40;5.03;;;3.10;;
77466;SDS011;66564;42.482;25.548;2023-02-18T09:42:15;5.97;;;3.38;;
77466;SDS011;66564;42.482;25.548;2023-02-18T09:44:50;8.60;;;4.97;;
77466;SDS011;66564;42.482;25.548;2023-02-18T09:47:20;7.13;;;4.53;;
77466;SDS011;66564;42.482;25.548;2023-02-18T09:49:57;10.68;;;4.47;;
77466;SDS011;66564;42.482;25.548;2023-02-18T09:52:31;8.43;;;4.30;;
77466;SDS011;66564;42.482;25.548;2023-02-18T09:54:58;7.70;;;4.35;;
77466;SDS011;66564;42.482;25.548;2023-02-18T10:02:53;11.10;;;4.60;;
77466;SDS011;66564;42.482;25.548;2023-02-18T10:05:22;9.82;;;5.57;;
77466;SDS011;66564;42.482;25.548;2023-02-18T10:07:51;5.22;;;3.83;;
77466;SDS011;66564;42.482;25.548;2023-02-18T10:10:42;5.88;;;3.75;;
77466;SDS011;66564;42.482;25.548;2023-02-18T10:13:12;6.07;;;3.30;;
77466;SDS011;66564;42.482;25.548;2023-02-18T10:15:43;9.10;;;3.70;;
77466;SDS011;66564;42.482;25.548;2023-02-18T10:18:31;11.35;;;4.60;;
77466;SDS011;66564;42.482;25.548;2023-02-18T10:21:00;8.73;;;4.13;;
77466;SDS011;66564;42.482;25.548;2023-02-18T10:23:39;5.88;;;4.05;;
77466;SDS011;66564;42.482;25.548;2023-02-18T10:26:10;6.30;;;3.70;;
77466;SDS011;66564;42.482;25.548;2023-02-18T10:28:39;7.22;;;3.88;;
77466;SDS011;66564;42.482;25.548;2023-02-18T10:32:11;7.32;;;3.70;;
77466;SDS011;66564;42.482;25.548;2023-02-18T10:51:28;5.78;;;3.20;;
77466;SDS011;66564;42.482;25.548;2023-02-18T10:54:59;4.35;;;3.00;;
77466;SDS011;66564;42.482;25.548;2023-02-18T11:01:13;6.05;;;3.42;;
77466;SDS011;66564;42.482;25.548;2023-02-18T11:03:42;5.05;;;3.20;;
77466;SDS011;66564;42.482;25.548;2023-02-18T11:07:20;6.18;;;3.83;;
77466;SDS011;66564;42.482;25.548;2023-02-18T11:10:44;5.20;;;3.58;;
77466;SDS011;66564;42.482;25.548;2023-02-18T11:14:14;6.07;;;3.70;;
77466;SDS011;66564;42.482;25.548;2023-02-18T11:17:43;7.00;;;3.72;;
77466;SDS011;66564;42.482;25.548;2023-02-18T11:23:49;6.30;;;3.50;;
77466;SDS011;66564;42.482;25.548;2023-02-18T11:26:17;5.78;;;2.97;;
77466;SDS011;66564;42.482;25.548;2023-02-18T11:29:02;5.30;;;3.10;;
77466;SDS011;66564;42.482;25.548;2023-02-18T11:31:44;5.82;;;3.50;;
77466;SDS011;66564;42.482;25.548;2023-02-18T11:34:15;5.70;;;3.33;;
77466;SDS011;66564;42.482;25.548;2023-02-18T11:36:44;8.05;;;3.30;;
77466;SDS011;66564;42.482;25.548;2023-02-18T11:39:17;6.55;;;3.10;;
77466;SDS011;66564;42.482;25.548;2023-02-18T11:41:46;4.18;;;2.80;;
77466;SDS011;66564;42.482;25.548;2023-02-18T11:44:31;4.72;;;2.88;;
77466;SDS011;66564;42.482;25.548;2023-02-18T11:47:01;6.65;;;4.22;;
77466;SDS011;66564;42.482;25.548;2023-02-18T11:49:29;9.75;;;5.45;;
77466;SDS011;66564;42.482;25.548;2023-02-18T11:52:03;7.80;;;5.57;;
77466;SDS011;66564;42.482;25.548;2023-02-18T11:54:34;7.05;;;4.35;;
77466;SDS011;66564;42.482;25.548;2023-02-18T11:57:04;7.03;;;3.00;;
77466;SDS011;66564;42.482;25.548;2023-02-18T11:59:34;7.25;;;4.57;;
77466;SDS011;66564;42.482;25.548;2023-02-18T12:02:06;7.85;;;4.72;;
77466;SDS011;66564;42.482;25.548;2023-02-18T12:04:51;6.45;;;3.90;;
77466;SDS011;66564;42.482;25.548;2023-02-18T12:10:18;3.85;;;2.42;;
77466;SDS011;66564;42.482;25.548;2023-02-18T12:15:31;5.22;;;2.33;;
77466;SDS011;66564;42.482;25.548;2023-02-18T12:22:15;3.55;;;2.13;;
77466;SDS011;66564;42.482;25.548;2023-02-18T12:25:55;2.67;;;1.90;;
77466;SDS011;66564;42.482;25.548;2023-02-18T12:32:51;2.78;;;1.80;;
77466;SDS011;66564;42.482;25.548;2023-02-18T12:42:32;4.15;;;2.10;;
77466;SDS011;66564;42.482;25.548;2023-02-18T12:51:44;3.45;;;2.42;;
77466;SDS011;66564;42.482;25.548;2023-02-18T13:13:42;4.50;;;2.63;;
77466;SDS011;66564;42.482;25.548;2023-02-18T13:16:34;4.13;;;2.50;;
77466;SDS011;66564;42.482;25.548;2023-02-18T13:19:15;5.70;;;2.65;;
77466;SDS011;66564;42.482;25.548;2023-02-18T13:22:24;5.32;;;2.38;;
77466;SDS011;66564;42.482;25.548;2023-02-18T13:24:45;4.72;;;2.67;;
77466;SDS011;66564;42.482;25.548;2023-02-18T13:27:18;4.75;;;2.63;;
77466;SDS011;66564;42.482;25.548;2023-02-18T13:38:48;5.05;;;2.90;;
77466;SDS011;66564;42.482;25.548;2023-02-18T13:45:04;3.78;;;2.35;;
77466;SDS011;66564;42.482;25.548;2023-02-18T13:54:52;4.57;;;2.95;;
77466;SDS011;66564;42.482;25.548;2023-02-18T14:13:16;5.07;;;2.70;;
77466;SDS011;66564;42.482;25.548;2023-02-18T14:16:47;9.13;;;2.92;;
77466;SDS011;66564;42.482;25.548;2023-02-18T14:19:55;4.82;;;2.85;;
77466;SDS011;66564;42.482;25.548;2023-02-18T14:23:37;5.15;;;2.80;;
77466;SDS011;66564;42.482;25.548;2023-02-18T14:26:36;4.28;;;2.53;;
77466;SDS011;66564;42.482;25.548;2023-02-18T14:33:11;4.32;;;3.10;;
77466;SDS011;66564;42.482;25.548;2023-02-18T14:36:51;5.72;;;2.75;;
77466;SDS011;66564;42.482;25.548;2023-02-18T14:40:19;4.25;;;2.60;;
77466;SDS011;66564;42.482;25.548;2023-02-18T14:50:12;4.53;;;2.42;;
77466;SDS011;66564;42.482;25.548;2023-02-18T14:53:42;6.38;;;2.78;;
77466;SDS011;66564;42.482;25.548;2023-02-18T14:57:16;4.25;;;2.40;;
77466;SDS011;66564;42.482;25.548;2023-02-18T15:00:39;4.50;;;3.03;;
77466;SDS011;66564;42.482;25.548;2023-02-18T15:04:03;4.75;;;2.80;;
77466;SDS011;66564;42.482;25.548;2023-02-18T15:07:28;6.53;;;2.83;;
77466;SDS011;66564;42.482;25.548;2023-02-18T15:09:57;4.07;;;2.75;;
77466;SDS011;66564;42.482;25.548;2023-02-18T15:13:26;7.13;;;2.90;;
77466;SDS011;66564;42.482;25.548;2023-02-18T15:16:53;3.38;;;2.53;;
77466;SDS011;66564;42.482;25.548;2023-02-18T15:20:21;4.53;;;2.80;;
77466;SDS011;66564;42.482;25.548;2023-02-18T15:23:46;7.50;;;2.90;;
77466;SDS011;66564;42.482;25.548;2023-02-18T15:27:14;7.10;;;2.90;;
77466;SDS011;66564;42.482;25.548;2023-02-18T15:30:38;6.28;;;2.80;;
77466;SDS011;66564;42.482;25.548;2023-02-18T15:33:47;5.32;;;3.08;;
77466;SDS011;66564;42.482;25.548;2023-02-18T15:37:13;5.28;;;2.90;;
77466;SDS011;66564;42.482;25.548;2023-02-18T15:40:41;5.40;;;3.28;;
77466;SDS011;66564;42.482;25.548;2023-02-18T15:44:15;5.90;;;3.17;;
77466;SDS011;66564;42.482;25.548;2023-02-18T15:47:34;5.28;;;3.08;;
77466;SDS011;66564;42.482;25.548;2023-02-18T15:51:03;4.25;;;2.83;;
77466;SDS011;66564;42.482;25.548;2023-02-18T15:54:28;4.40;;;2.63;;
77466;SDS011;66564;42.482;25.548;2023-02-18T15:57:53;9.13;;;3.05;;
77466;SDS011;66564;42.482;25.548;2023-02-18T16:04:31;6.65;;;3.28;;
77466;SDS011;66564;42.482;25.548;2023-02-18T16:08:14;4.85;;;2.90;;
77466;SDS011;66564;42.482;25.548;2023-02-18T16:11:46;4.35;;;2.88;;
77466;SDS011;66564;42.482;25.548;2023-02-18T16:15:13;4.78;;;3.03;;
77466;SDS011;66564;42.482;25.548;2023-02-18T16:18:44;6.40;;;2.75;;
77466;SDS011;66564;42.482;25.548;2023-02-18T16:24:21;4.75;;;2.90;;
77466;SDS011;66564;42.482;25.548;2023-02-18T16:28:25;8.27;;;3.45;;
77466;SDS011;66564;42.482;25.548;2023-02-18T16:31:10;4.82;;;2.75;;
77466;SDS011;66564;42.482;25.548;2023-02-18T16:34:38;3.42;;;2.20;;
77466;SDS011;66564;42.482;25.548;2023-02-18T16:37:51;3.97;;;2.45;;
77466;SDS011;66564;42.482;25.548;2023-02-18T16:41:11;7.43;;;2.63;;
77466;SDS011;66564;42.482;25.548;2023-02-18T16:44:36;5.45;;;2.20;;
77466;SDS011;66564;42.482;25.548;2023-02-18T16:48:01;3.20;;;2.22;;
77466;SDS011;66564;42.482;25.548;2023-02-18T16:51:30;4.93;;;2.58;;
77466;SDS011;66564;42.482;25.548;2023-02-18T16:54:55;3.85;;;2.40;;
77466;SDS011;66564;42.482;25.548;2023-02-18T16:58:21;7.30;;;5.20;;
77466;SDS011;66564;42.482;25.548;2023-02-18T17:01:46;5.82;;;3.13;;
77466;SDS011;66564;42.482;25.548;2023-02-18T17:05:22;4.53;;;2.42;;
77466;SDS011;66564;42.482;25.548;2023-02-18T17:08:37;4.35;;;2.33;;
77466;SDS011;66564;42.482;25.548;2023-02-18T17:12:02;3.75;;;2.50;;
77466;SDS011;66564;42.482;25.548;2023-02-18T17:15:28;5.10;;;2.50;;
77466;SDS011;66564;42.482;25.548;2023-02-18T17:18:52;4.45;;;2.55;;
77466;SDS011;66564;42.482;25.548;2023-02-18T17:22:17;5.30;;;2.47;;
77466;SDS011;66564;42.482;25.548;2023-02-18T17:25:43;4.45;;;2.58;;
77466;SDS011;66564;42.482;25.548;2023-02-18T17:29:11;4.80;;;2.75;;
77466;SDS011;66564;42.482;25.548;2023-02-18T17:31:37;5.40;;;2.30;;
77466;SDS011;66564;42.482;25.548;2023-02-18T17:35:02;5.40;;;2.22;;
77466;SDS011;66564;42.482;25.548;2023-02-18T17:38:27;4.78;;;2.63;;
77466;SDS011;66564;42.482;25.548;2023-02-18T17:41:52;3.42;;;2.28;;
77466;SDS011;66564;42.482;25.548;2023-02-18T17:48:26;4.78;;;2.60;;
77466;SDS011;66564;42.482;25.548;2023-02-18T17:51:52;3.78;;;2.63;;
77466;SDS011;66564;42.482;25.548;2023-02-18T17:55:22;6.05;;;3.10;;
77466;SDS011;66564;42.482;25.548;2023-02-18T17:58:45;4.45;;;2.90;;
77466;SDS011;66564;42.482;25.548;2023-02-18T18:02:17;4.60;;;3.15;;
77466;SDS011;66564;42.482;25.548;2023-02-18T18:05:37;4.57;;;3.17;;
77466;SDS011;66564;42.482;25.548;2023-02-18T18:09:02;5.07;;;3.10;;
77466;SDS011;66564;42.482;25.548;2023-02-18T18:12:27;4.13;;;2.90;;
77466;SDS011;66564;42.482;25.548;2023-02-18T18:15:52;4.95;;;3.40;;
77466;SDS011;66564;42.482;25.548;2023-02-18T18:19:17;6.18;;;2.80;;
77466;SDS011;66564;42.482;25.548;2023-02-18T18:22:43;5.55;;;2.90;;
77466;SDS011;66564;42.482;25.548;2023-02-18T18:25:14;4.57;;;2.40;;
77466;SDS011;66564;42.482;25.548;2023-02-18T18:27:42;4.47;;;2.80;;
77466;SDS011;66564;42.482;25.548;2023-02-18T18:30:09;6.05;;;2.80;;
77466;SDS011;66564;42.482;25.548;2023-02-18T18:32:41;3.92;;;2.40;;
77466;SDS011;66564;42.482;25.548;2023-02-18T18:35:13;5.38;;;2.45;;
77466;SDS011;66564;42.482;25.548;2023-02-18T18:37:56;6.55;;;2.65;;
77466;SDS011;66564;42.482;25.548;2023-02-18T18:40:23;3.75;;;2.55;;
77466;SDS011;66564;42.482;25.548;2023-02-18T18:42:50;5.18;;;2.20;;
77466;SDS011;66564;42.482;25.548;2023-02-18T18:48:24;6.07;;;2.63;;
77466;SDS011;66564;42.482;25.548;2023-02-18T18:51:50;4.13;;;2.10;;
77466;SDS011;66564;42.482;25.548;2023-02-18T18:58:28;7.55;;;2.97;;
77466;SDS011;66564;42.482;25.548;2023-02-18T19:01:55;6.03;;;2.58;;
77466;SDS011;66564;42.482;25.548;2023-02-18T19:05:25;5.15;;;2.83;;
77466;SDS011;66564;42.482;25.548;2023-02-18T19:08:48;4.32;;;2.30;;
77466;SDS011;66564;42.482;25.548;2023-02-18T19:12:14;4.57;;;2.42;;
77466;SDS011;66564;42.482;25.548;2023-02-18T19:15:42;4.95;;;2.40;;
77466;SDS011;66564;42.482;25.548;2023-02-18T19:19:08;4.68;;;2.47;;
77466;SDS011;66564;42.482;25.548;2023-02-18T19:22:33;7.07;;;2.90;;
77466;SDS011;66564;42.482;25.548;2023-02-18T19:25:59;4.43;;;2.42;;
77466;SDS011;66564;42.482;25.548;2023-02-18T19:29:24;4.95;;;2.97;;
77466;SDS011;66564;42.482;25.548;2023-02-18T19:32:53;4.43;;;2.28;;
77466;SDS011;66564;42.482;25.548;2023-02-18T19:39:23;3.83;;;1.88;;
77466;SDS011;66564;42.482;25.548;2023-02-18T19:42:48;6.95;;;2.70;;
77466;SDS011;66564;42.482;25.548;2023-02-18T19:46:14;4.07;;;2.40;;
77466;SDS011;66564;42.482;25.548;2023-02-18T19:49:38;6.53;;;2.58;;
77466;SDS011;66564;42.482;25.548;2023-02-18T19:52:04;4.13;;;2.63;;
77466;SDS011;66564;42.482;25.548;2023-02-18T19:55:29;4.38;;;2.53;;
77466;SDS011;66564;42.482;25.548;2023-02-18T19:59:00;3.75;;;2.20;;
77466;SDS011;66564;42.482;25.548;2023-02-18T20:02:25;3.70;;;2.40;;
77466;SDS011;66564;42.482;25.548;2023-02-18T20:05:50;5.55;;;2.65;;
77466;SDS011;66564;42.482;25.548;2023-02-18T20:09:21;7.18;;;2.78;;
77466;SDS011;66564;42.482;25.548;2023-02-18T20:12:50;4.53;;;2.45;;
77466;SDS011;66564;42.482;25.548;2023-02-18T20:16:14;4.70;;;2.58;;
77466;SDS011;66564;42.482;25.548;2023-02-18T20:19:40;3.25;;;2.53;;
77466;SDS011;66564;42.482;25.548;2023-02-18T20:23:05;4.13;;;2.63;;
77466;SDS011;66564;42.482;25.548;2023-02-18T20:26:30;5.65;;;2.67;;
77466;SDS011;66564;42.482;25.548;2023-02-18T20:29:55;4.97;;;2.47;;
77466;SDS011;66564;42.482;25.548;2023-02-18T20:33:21;3.75;;;2.40;;
77466;SDS011;66564;42.482;25.548;2023-02-18T20:36:50;3.30;;;2.40;;
77466;SDS011;66564;42.482;25.548;2023-02-18T20:40:14;4.65;;;2.45;;
77466;SDS011;66564;42.482;25.548;2023-02-18T20:43:40;4.13;;;2.58;;
77466;SDS011;66564;42.482;25.548;2023-02-18T20:47:05;5.57;;;2.40;;
77466;SDS011;66564;42.482;25.548;2023-02-18T20:50:30;4.15;;;2.78;;
77466;SDS011;66564;42.482;25.548;2023-02-18T20:53:55;4.18;;;2.97;;
77466;SDS011;66564;42.482;25.548;2023-02-18T20:57:20;4.03;;;2.35;;
77466;SDS011;66564;42.482;25.548;2023-02-18T21:00:56;4.28;;;2.53;;
77466;SDS011;66564;42.482;25.548;2023-02-18T21:04:13;3.83;;;2.22;;
77466;SDS011;66564;42.482;25.548;2023-02-18T21:07:37;4.03;;;2.47;;
77466;SDS011;66564;42.482;25.548;2023-02-18T21:11:04;4.35;;;3.00;;
77466;SDS011;66564;42.482;25.548;2023-02-18T21:14:28;5.43;;;2.38;;
77466;SDS011;66564;42.482;25.548;2023-02-18T21:17:53;6.30;;;2.60;;
77466;SDS011;66564;42.482;25.548;2023-02-18T21:21:19;4.40;;;2.30;;
77466;SDS011;66564;42.482;25.548;2023-02-18T21:24:44;4.30;;;3.00;;
77466;SDS011;66564;42.482;25.548;2023-02-18T21:28:09;4.78;;;2.30;;
77466;SDS011;66564;42.482;25.548;2023-02-18T21:31:37;6.88;;;2.83;;
77466;SDS011;66564;42.482;25.548;2023-02-18T21:35:01;3.88;;;2.72;;
77466;SDS011;66564;42.482;25.548;2023-02-18T21:37:26;5.82;;;2.63;;